Accueil
METAR-TAF:

METAR-TAF

Aéroports :

Maré, Nouvelle-Calédonie

Aérodrome de Maré - La Roche

latitude: 21-28-53S, longitude: 168-02-15E, altitude: 42 m

METAR: absent

Heure: 18:02 (07:02 UTC)

Prévision

Le bulletin a été fait il y a 14 heures et 2 minutes, à 17:00 UTC
Prévision valable du 26 à 18 UTC au 27 à 18 UTC
Vent 4 kt de sud/sud-est
Visibilité 10 km ou plus
Quelques nuages à une hauteur de 5000 ft
Temporairement
du 27 à 00 UTC au 27 à 06 UTC
Vent 8 kt de sud/sud-est avec des rafales jusqu'à 20 kt

TAF: NWWR 261700Z 2618/2718 15004KT 9999 FEW050 TEMPO 2700/2706 15008G20KT

Observations et prévisions météorologiques de plus de 4000 aéroports (messages METAR et TAF).

Les stations disponibles sont représentées par des disques jaunes et rouges sur la carte.

Passer la souris dessus pour voir le nom de la station.

Cliquer dessus pour voir les observations et prévisions météorologiques.

Pour changer de carte: cliquez sur les boutons verts avec une croix noire pour zoomer, sur le bouton vert avec un tiret pour effectuer un zoom arrière, ou sur les flèches vertes pour les cartes adjacentes.


METAR-TAF: